sensor_id;sensor_type;location;lat;lon;timestamp;temperature;humidity
76936;DHT22;65881;52.438;16.744;2023-07-31T00:00:27;16.40;84.60
76936;DHT22;65881;52.438;16.744;2023-07-31T00:02:54;16.40;84.40
76936;DHT22;65881;52.438;16.744;2023-07-31T00:05:19;16.40;84.10
76936;DHT22;65881;52.438;16.744;2023-07-31T00:07:45;16.40;84.10
76936;DHT22;65881;52.438;16.744;2023-07-31T00:10:11;16.30;84.50
76936;DHT22;65881;52.438;16.744;2023-07-31T00:12:38;16.30;84.50
76936;DHT22;65881;52.438;16.744;2023-07-31T00:15:05;16.30;84.50
76936;DHT22;65881;52.438;16.744;2023-07-31T00:17:31;16.20;84.70
76936;DHT22;65881;52.438;16.744;2023-07-31T00:19:56;16.20;84.50
76936;DHT22;65881;52.438;16.744;2023-07-31T00:22:22;16.20;84.70
76936;DHT22;65881;52.438;16.744;2023-07-31T00:24:48;16.10;84.90
76936;DHT22;65881;52.438;16.744;2023-07-31T00:27:13;16.10;85.20
76936;DHT22;65881;52.438;16.744;2023-07-31T00:29:39;16.00;85.60
76936;DHT22;65881;52.438;16.744;2023-07-31T00:32:05;16.00;85.70
76936;DHT22;65881;52.438;16.744;2023-07-31T00:34:31;16.00;85.80
76936;DHT22;65881;52.438;16.744;2023-07-31T00:36:57;16.00;86.00
76936;DHT22;65881;52.438;16.744;2023-07-31T00:39:23;15.90;86.10
76936;DHT22;65881;52.438;16.744;2023-07-31T00:41:49;15.90;86.10
76936;DHT22;65881;52.438;16.744;2023-07-31T00:44:15;15.80;86.10
76936;DHT22;65881;52.438;16.744;2023-07-31T00:46:40;15.80;86.20
76936;DHT22;65881;52.438;16.744;2023-07-31T00:49:06;15.80;86.40
76936;DHT22;65881;52.438;16.744;2023-07-31T00:51:33;15.70;86.60
76936;DHT22;65881;52.438;16.744;2023-07-31T00:53:58;15.70;86.70
76936;DHT22;65881;52.438;16.744;2023-07-31T00:56:25;15.60;86.70
76936;DHT22;65881;52.438;16.744;2023-07-31T00:58:51;15.60;86.80
76936;DHT22;65881;52.438;16.744;2023-07-31T01:01:17;15.60;86.90
76936;DHT22;65881;52.438;16.744;2023-07-31T01:03:42;15.60;87.00
76936;DHT22;65881;52.438;16.744;2023-07-31T01:06:22;15.50;87.20
76936;DHT22;65881;52.438;16.744;2023-07-31T01:09:03;15.50;87.50
76936;DHT22;65881;52.438;16.744;2023-07-31T01:11:33;15.40;87.80
76936;DHT22;65881;52.438;16.744;2023-07-31T01:13:59;15.40;87.60
76936;DHT22;65881;52.438;16.744;2023-07-31T01:16:26;15.40;87.80
76936;DHT22;65881;52.438;16.744;2023-07-31T01:18:52;15.30;87.90
76936;DHT22;65881;52.438;16.744;2023-07-31T01:21:31;15.30;88.00
76936;DHT22;65881;52.438;16.744;2023-07-31T01:24:23;15.30;87.90
76936;DHT22;65881;52.438;16.744;2023-07-31T01:26:58;15.30;87.80
76936;DHT22;65881;52.438;16.744;2023-07-31T01:29:50;15.30;87.90
76936;DHT22;65881;52.438;16.744;2023-07-31T01:32:22;15.30;87.90
76936;DHT22;65881;52.438;16.744;2023-07-31T01:34:49;15.20;87.90
76936;DHT22;65881;52.438;16.744;2023-07-31T01:37:16;15.20;87.80
76936;DHT22;65881;52.438;16.744;2023-07-31T01:39:41;15.20;88.00
76936;DHT22;65881;52.438;16.744;2023-07-31T01:42:07;15.20;87.90
76936;DHT22;65881;52.438;16.744;2023-07-31T01:44:33;15.10;88.10
76936;DHT22;65881;52.438;16.744;2023-07-31T01:46:58;15.00;88.30
76936;DHT22;65881;52.438;16.744;2023-07-31T01:49:25;15.00;88.40
76936;DHT22;65881;52.438;16.744;2023-07-31T01:51:51;15.00;88.40
76936;DHT22;65881;52.438;16.744;2023-07-31T01:54:16;15.00;88.50
76936;DHT22;65881;52.438;16.744;2023-07-31T01:56:42;15.00;88.70
76936;DHT22;65881;52.438;16.744;2023-07-31T01:59:08;15.00;88.90
76936;DHT22;65881;52.438;16.744;2023-07-31T02:01:33;15.00;88.90
76936;DHT22;65881;52.438;16.744;2023-07-31T02:03:59;15.00;89.00
76936;DHT22;65881;52.438;16.744;2023-07-31T02:06:25;15.00;88.90
76936;DHT22;65881;52.438;16.744;2023-07-31T02:08:51;15.00;89.00
76936;DHT22;65881;52.438;16.744;2023-07-31T02:11:16;15.00;88.80
76936;DHT22;65881;52.438;16.744;2023-07-31T02:13:42;15.00;88.90
76936;DHT22;65881;52.438;16.744;2023-07-31T02:16:41;14.90;89.00
76936;DHT22;65881;52.438;16.744;2023-07-31T02:19:17;14.90;89.20
76936;DHT22;65881;52.438;16.744;2023-07-31T02:21:43;14.90;89.40
76936;DHT22;65881;52.438;16.744;2023-07-31T02:24:09;14.90;89.50
76936;DHT22;65881;52.438;16.744;2023-07-31T02:26:47;14.90;89.50
76936;DHT22;65881;52.438;16.744;2023-07-31T02:29:28;14.90;89.70
76936;DHT22;65881;52.438;16.744;2023-07-31T02:31:54;14.90;89.80
76936;DHT22;65881;52.438;16.744;2023-07-31T02:34:19;14.80;89.90
76936;DHT22;65881;52.438;16.744;2023-07-31T02:36:45;14.80;90.00
76936;DHT22;65881;52.438;16.744;2023-07-31T02:39:11;14.80;89.80
76936;DHT22;65881;52.438;16.744;2023-07-31T02:41:36;14.80;90.40
76936;DHT22;65881;52.438;16.744;2023-07-31T02:44:02;14.70;90.50
76936;DHT22;65881;52.438;16.744;2023-07-31T02:46:28;14.70;90.60
76936;DHT22;65881;52.438;16.744;2023-07-31T02:48:53;14.60;90.90
76936;DHT22;65881;52.438;16.744;2023-07-31T02:51:19;14.60;90.80
76936;DHT22;65881;52.438;16.744;2023-07-31T02:54:25;14.60;90.80
76936;DHT22;65881;52.438;16.744;2023-07-31T02:56:59;14.60;90.60
76936;DHT22;65881;52.438;16.744;2023-07-31T02:59:28;14.60;90.60
76936;DHT22;65881;52.438;16.744;2023-07-31T03:12:03;14.40;91.30
76936;DHT22;65881;52.438;16.744;2023-07-31T03:19:36;14.30;91.80
76936;DHT22;65881;52.438;16.744;2023-07-31T03:22:02;14.30;92.10
76936;DHT22;65881;52.438;16.744;2023-07-31T03:24:28;14.30;92.30
76936;DHT22;65881;52.438;16.744;2023-07-31T03:26:55;14.30;92.70
76936;DHT22;65881;52.438;16.744;2023-07-31T03:31:56;14.30;92.80
76936;DHT22;65881;52.438;16.744;2023-07-31T03:34:21;14.30;93.10
76936;DHT22;65881;52.438;16.744;2023-07-31T03:36:47;14.30;93.30
76936;DHT22;65881;52.438;16.744;2023-07-31T03:39:13;14.20;93.60
76936;DHT22;65881;52.438;16.744;2023-07-31T03:41:38;14.20;93.90
76936;DHT22;65881;52.438;16.744;2023-07-31T03:44:04;14.30;93.90
76936;DHT22;65881;52.438;16.744;2023-07-31T03:49:33;14.20;94.40
76936;DHT22;65881;52.438;16.744;2023-07-31T04:01:10;14.30;95.20
76936;DHT22;65881;52.438;16.744;2023-07-31T04:22:29;14.40;95.50
76936;DHT22;65881;52.438;16.744;2023-07-31T04:35:56;14.40;95.20
76936;DHT22;65881;52.438;16.744;2023-07-31T05:14:25;14.70;94.40
76936;DHT22;65881;52.438;16.744;2023-07-31T05:16:51;14.80;94.70
76936;DHT22;65881;52.438;16.744;2023-07-31T05:19:17;14.90;94.20
76936;DHT22;65881;52.438;16.744;2023-07-31T05:21:43;14.90;93.90
76936;DHT22;65881;52.438;16.744;2023-07-31T05:24:10;15.00;93.20
76936;DHT22;65881;52.438;16.744;2023-07-31T05:26:36;15.00;92.50
76936;DHT22;65881;52.438;16.744;2023-07-31T05:31:38;15.20;92.10
76936;DHT22;65881;52.438;16.744;2023-07-31T05:34:04;15.30;91.00
76936;DHT22;65881;52.438;16.744;2023-07-31T05:36:30;15.40;90.80
76936;DHT22;65881;52.438;16.744;2023-07-31T05:38:55;15.50;90.50
76936;DHT22;65881;52.438;16.744;2023-07-31T05:41:21;15.60;90.10
76936;DHT22;65881;52.438;16.744;2023-07-31T05:43:47;15.70;89.60
76936;DHT22;65881;52.438;16.744;2023-07-31T05:46:12;15.80;88.20
76936;DHT22;65881;52.438;16.744;2023-07-31T05:48:38;15.80;87.90
76936;DHT22;65881;52.438;16.744;2023-07-31T05:51:04;16.00;88.00
76936;DHT22;65881;52.438;16.744;2023-07-31T05:53:29;16.00;87.60
76936;DHT22;65881;52.438;16.744;2023-07-31T05:55:55;16.10;86.70
76936;DHT22;65881;52.438;16.744;2023-07-31T05:58:21;16.20;86.60
76936;DHT22;65881;52.438;16.744;2023-07-31T06:00:46;16.20;85.80
76936;DHT22;65881;52.438;16.744;2023-07-31T06:03:12;16.40;85.30
76936;DHT22;65881;52.438;16.744;2023-07-31T06:05:38;16.40;84.80
76936;DHT22;65881;52.438;16.744;2023-07-31T06:08:03;16.40;85.30
76936;DHT22;65881;52.438;16.744;2023-07-31T06:10:29;16.50;85.30
76936;DHT22;65881;52.438;16.744;2023-07-31T06:12:55;16.50;84.70
76936;DHT22;65881;52.438;16.744;2023-07-31T06:18:25;16.70;84.10
76936;DHT22;65881;52.438;16.744;2023-07-31T06:21:06;16.80;84.40
76936;DHT22;65881;52.438;16.744;2023-07-31T06:23:32;16.80;83.20
76936;DHT22;65881;52.438;16.744;2023-07-31T06:25:57;16.90;83.10
76936;DHT22;65881;52.438;16.744;2023-07-31T06:28:30;16.90;82.60
76936;DHT22;65881;52.438;16.744;2023-07-31T06:30:56;17.00;82.50
76936;DHT22;65881;52.438;16.744;2023-07-31T06:33:22;17.00;81.80
76936;DHT22;65881;52.438;16.744;2023-07-31T06:35:47;17.20;80.80
76936;DHT22;65881;52.438;16.744;2023-07-31T06:38:13;17.30;81.00
76936;DHT22;65881;52.438;16.744;2023-07-31T06:40:39;17.40;78.60
76936;DHT22;65881;52.438;16.744;2023-07-31T06:43:05;17.40;80.00
76936;DHT22;65881;52.438;16.744;2023-07-31T06:45:36;17.50;80.40
76936;DHT22;65881;52.438;16.744;2023-07-31T06:48:02;17.40;79.30
76936;DHT22;65881;52.438;16.744;2023-07-31T06:50:30;17.30;79.20
76936;DHT22;65881;52.438;16.744;2023-07-31T06:52:57;17.20;78.90
76936;DHT22;65881;52.438;16.744;2023-07-31T06:55:23;17.20;79.60
76936;DHT22;65881;52.438;16.744;2023-07-31T06:57:51;17.10;79.70
76936;DHT22;65881;52.438;16.744;2023-07-31T07:00:18;17.00;80.80
76936;DHT22;65881;52.438;16.744;2023-07-31T07:02:44;17.10;80.30
76936;DHT22;65881;52.438;16.744;2023-07-31T07:05:13;17.20;79.70
76936;DHT22;65881;52.438;16.744;2023-07-31T07:07:39;17.20;79.70
76936;DHT22;65881;52.438;16.744;2023-07-31T07:10:08;17.20;79.90
76936;DHT22;65881;52.438;16.744;2023-07-31T07:12:34;17.40;80.60
76936;DHT22;65881;52.438;16.744;2023-07-31T07:15:00;17.40;79.70
76936;DHT22;65881;52.438;16.744;2023-07-31T07:17:29;17.50;79.20
76936;DHT22;65881;52.438;16.744;2023-07-31T07:19:59;17.50;78.50
76936;DHT22;65881;52.438;16.744;2023-07-31T07:22:25;17.60;78.60
76936;DHT22;65881;52.438;16.744;2023-07-31T07:24:52;17.80;78.20
76936;DHT22;65881;52.438;16.744;2023-07-31T07:27:18;17.60;78.00
76936;DHT22;65881;52.438;16.744;2023-07-31T07:29:50;17.60;78.70
76936;DHT22;65881;52.438;16.744;2023-07-31T07:32:20;17.50;80.30
76936;DHT22;65881;52.438;16.744;2023-07-31T07:34:48;17.50;80.00
76936;DHT22;65881;52.438;16.744;2023-07-31T07:37:14;17.50;78.60
76936;DHT22;65881;52.438;16.744;2023-07-31T07:39:40;17.50;77.90
76936;DHT22;65881;52.438;16.744;2023-07-31T07:42:06;17.50;77.50
76936;DHT22;65881;52.438;16.744;2023-07-31T07:44:36;17.50;76.50
76936;DHT22;65881;52.438;16.744;2023-07-31T07:47:01;17.50;77.10
76936;DHT22;65881;52.438;16.744;2023-07-31T07:49:36;17.40;77.40
76936;DHT22;65881;52.438;16.744;2023-07-31T08:16:10;17.30;80.70
76936;DHT22;65881;52.438;16.744;2023-07-31T08:18:36;17.30;79.50
76936;DHT22;65881;52.438;16.744;2023-07-31T08:21:05;17.40;79.90
76936;DHT22;65881;52.438;16.744;2023-07-31T08:26:15;17.50;79.90
76936;DHT22;65881;52.438;16.744;2023-07-31T08:29:29;17.50;77.70
76936;DHT22;65881;52.438;16.744;2023-07-31T08:32:04;17.50;77.20
76936;DHT22;65881;52.438;16.744;2023-07-31T08:37:13;17.50;77.90
76936;DHT22;65881;52.438;16.744;2023-07-31T08:39:51;17.50;78.50
76936;DHT22;65881;52.438;16.744;2023-07-31T08:42:20;17.50;77.90
76936;DHT22;65881;52.438;16.744;2023-07-31T08:44:52;17.60;77.80
76936;DHT22;65881;52.438;16.744;2023-07-31T08:47:37;17.50;76.20
76936;DHT22;65881;52.438;16.744;2023-07-31T08:55:44;17.70;75.80
76936;DHT22;65881;52.438;16.744;2023-07-31T08:58:46;17.70;75.40
76936;DHT22;65881;52.438;16.744;2023-07-31T09:01:49;17.80;75.70
76936;DHT22;65881;52.438;16.744;2023-07-31T09:04:22;17.80;75.50
76936;DHT22;65881;52.438;16.744;2023-07-31T09:06:53;17.80;75.60
76936;DHT22;65881;52.438;16.744;2023-07-31T09:09:43;17.70;75.10
76936;DHT22;65881;52.438;16.744;2023-07-31T09:12:11;17.60;75.50
76936;DHT22;65881;52.438;16.744;2023-07-31T09:14:38;17.50;76.10
76936;DHT22;65881;52.438;16.744;2023-07-31T09:17:07;17.50;76.30
76936;DHT22;65881;52.438;16.744;2023-07-31T09:19:39;17.40;77.00
76936;DHT22;65881;52.438;16.744;2023-07-31T09:22:49;17.40;76.70
76936;DHT22;65881;52.438;16.744;2023-07-31T09:25:39;17.20;79.00
76936;DHT22;65881;52.438;16.744;2023-07-31T09:28:42;17.00;80.70
76936;DHT22;65881;52.438;16.744;2023-07-31T09:31:08;16.70;83.80
76936;DHT22;65881;52.438;16.744;2023-07-31T09:33:57;16.50;85.80
76936;DHT22;65881;52.438;16.744;2023-07-31T09:36:22;16.40;86.70
76936;DHT22;65881;52.438;16.744;2023-07-31T09:38:54;16.20;88.50
76936;DHT22;65881;52.438;16.744;2023-07-31T09:41:40;16.00;91.10
76936;DHT22;65881;52.438;16.744;2023-07-31T09:44:06;15.90;92.90
76936;DHT22;65881;52.438;16.744;2023-07-31T09:47:24;16.00;93.70
76936;DHT22;65881;52.438;16.744;2023-07-31T09:49:50;16.00;94.00
76936;DHT22;65881;52.438;16.744;2023-07-31T09:52:16;16.00;94.90
76936;DHT22;65881;52.438;16.744;2023-07-31T09:54:41;16.10;94.70
76936;DHT22;65881;52.438;16.744;2023-07-31T09:57:08;16.20;94.20
76936;DHT22;65881;52.438;16.744;2023-07-31T09:59:34;16.40;93.80
76936;DHT22;65881;52.438;16.744;2023-07-31T10:02:04;16.50;92.10
76936;DHT22;65881;52.438;16.744;2023-07-31T10:04:40;16.60;93.80
76936;DHT22;65881;52.438;16.744;2023-07-31T10:07:23;16.80;92.80
76936;DHT22;65881;52.438;16.744;2023-07-31T10:10:19;16.90;92.10
76936;DHT22;65881;52.438;16.744;2023-07-31T10:13:02;17.00;90.80
76936;DHT22;65881;52.438;16.744;2023-07-31T10:15:31;17.20;88.80
76936;DHT22;65881;52.438;16.744;2023-07-31T10:18:01;17.00;90.20
76936;DHT22;65881;52.438;16.744;2023-07-31T10:20:30;17.00;90.90
76936;DHT22;65881;52.438;16.744;2023-07-31T10:22:56;17.00;90.40
76936;DHT22;65881;52.438;16.744;2023-07-31T10:25:41;17.00;90.40
76936;DHT22;65881;52.438;16.744;2023-07-31T10:30:34;16.80;91.70
76936;DHT22;65881;52.438;16.744;2023-07-31T10:33:31;16.80;91.20
76936;DHT22;65881;52.438;16.744;2023-07-31T10:36:20;16.80;92.10
76936;DHT22;65881;52.438;16.744;2023-07-31T10:38:49;16.80;91.80
76936;DHT22;65881;52.438;16.744;2023-07-31T10:44:47;16.80;91.40
76936;DHT22;65881;52.438;16.744;2023-07-31T10:47:29;16.80;91.20
76936;DHT22;65881;52.438;16.744;2023-07-31T10:57:00;16.70;92.90
76936;DHT22;65881;52.438;16.744;2023-07-31T10:59:38;16.70;93.10
76936;DHT22;65881;52.438;16.744;2023-07-31T11:02:26;16.90;94.40
76936;DHT22;65881;52.438;16.744;2023-07-31T11:05:15;17.50;93.00
76936;DHT22;65881;52.438;16.744;2023-07-31T11:07:48;17.60;90.40
76936;DHT22;65881;52.438;16.744;2023-07-31T11:21:34;17.50;88.50
76936;DHT22;65881;52.438;16.744;2023-07-31T11:24:09;17.50;87.30
76936;DHT22;65881;52.438;16.744;2023-07-31T11:26:59;17.40;88.40
76936;DHT22;65881;52.438;16.744;2023-07-31T11:29:35;17.30;88.20
76936;DHT22;65881;52.438;16.744;2023-07-31T11:32:28;17.50;89.50
76936;DHT22;65881;52.438;16.744;2023-07-31T11:35:12;17.50;88.00
76936;DHT22;65881;52.438;16.744;2023-07-31T11:40:14;17.60;87.60
76936;DHT22;65881;52.438;16.744;2023-07-31T11:42:43;17.80;87.20
76936;DHT22;65881;52.438;16.744;2023-07-31T11:45:27;18.00;87.10
76936;DHT22;65881;52.438;16.744;2023-07-31T11:47:57;18.10;85.30
76936;DHT22;65881;52.438;16.744;2023-07-31T11:50:38;18.10;85.50
76936;DHT22;65881;52.438;16.744;2023-07-31T11:53:44;18.20;84.90
76936;DHT22;65881;52.438;16.744;2023-07-31T11:56:43;18.50;85.80
76936;DHT22;65881;52.438;16.744;2023-07-31T11:59:27;18.60;83.50
76936;DHT22;65881;52.438;16.744;2023-07-31T12:01:54;18.30;83.80
76936;DHT22;65881;52.438;16.744;2023-07-31T12:04:26;18.00;83.10
76936;DHT22;65881;52.438;16.744;2023-07-31T12:07:00;17.80;84.40
76936;DHT22;65881;52.438;16.744;2023-07-31T12:09:32;17.60;85.30
76936;DHT22;65881;52.438;16.744;2023-07-31T12:11:58;17.50;85.70
76936;DHT22;65881;52.438;16.744;2023-07-31T12:14:27;17.40;87.30
76936;DHT22;65881;52.438;16.744;2023-07-31T12:16:57;17.30;88.10
76936;DHT22;65881;52.438;16.744;2023-07-31T12:19:24;17.20;89.00
76936;DHT22;65881;52.438;16.744;2023-07-31T12:21:53;17.20;88.90
76936;DHT22;65881;52.438;16.744;2023-07-31T12:24:19;17.20;89.40
76936;DHT22;65881;52.438;16.744;2023-07-31T12:26:48;17.20;88.00
76936;DHT22;65881;52.438;16.744;2023-07-31T12:29:21;17.20;88.30
76936;DHT22;65881;52.438;16.744;2023-07-31T12:31:47;17.30;88.40
76936;DHT22;65881;52.438;16.744;2023-07-31T12:34:17;17.50;87.90
76936;DHT22;65881;52.438;16.744;2023-07-31T12:36:44;17.60;87.20
76936;DHT22;65881;52.438;16.744;2023-07-31T12:39:10;18.00;86.50
76936;DHT22;65881;52.438;16.744;2023-07-31T12:41:35;18.10;85.70
76936;DHT22;65881;52.438;16.744;2023-07-31T12:44:01;18.30;85.70
76936;DHT22;65881;52.438;16.744;2023-07-31T12:46:28;18.30;83.30
76936;DHT22;65881;52.438;16.744;2023-07-31T12:48:54;18.30;83.70
76936;DHT22;65881;52.438;16.744;2023-07-31T12:51:20;18.30;82.10
76936;DHT22;65881;52.438;16.744;2023-07-31T12:53:55;18.20;82.00
76936;DHT22;65881;52.438;16.744;2023-07-31T12:56:21;18.20;82.50
76936;DHT22;65881;52.438;16.744;2023-07-31T12:58:46;18.20;83.30
76936;DHT22;65881;52.438;16.744;2023-07-31T13:01:12;18.20;81.60
76936;DHT22;65881;52.438;16.744;2023-07-31T13:03:53;18.20;83.00
76936;DHT22;65881;52.438;16.744;2023-07-31T13:06:37;18.30;83.20
76936;DHT22;65881;52.438;16.744;2023-07-31T13:09:12;18.50;82.70
76936;DHT22;65881;52.438;16.744;2023-07-31T13:11:37;18.70;81.70
76936;DHT22;65881;52.438;16.744;2023-07-31T13:14:03;18.70;79.90
76936;DHT22;65881;52.438;16.744;2023-07-31T13:16:29;18.60;80.30
76936;DHT22;65881;52.438;16.744;2023-07-31T13:19:06;18.50;80.70
76936;DHT22;65881;52.438;16.744;2023-07-31T13:21:32;18.40;80.70
76936;DHT22;65881;52.438;16.744;2023-07-31T13:24:04;18.40;80.90
76936;DHT22;65881;52.438;16.744;2023-07-31T13:26:35;18.30;81.10
76936;DHT22;65881;52.438;16.744;2023-07-31T13:29:02;18.20;81.20
76936;DHT22;65881;52.438;16.744;2023-07-31T13:31:43;18.20;81.10
76936;DHT22;65881;52.438;16.744;2023-07-31T13:34:09;18.10;82.40
76936;DHT22;65881;52.438;16.744;2023-07-31T13:36:34;18.00;83.80
76936;DHT22;65881;52.438;16.744;2023-07-31T13:39:08;18.00;85.20
76936;DHT22;65881;52.438;16.744;2023-07-31T13:41:43;18.10;87.50
76936;DHT22;65881;52.438;16.744;2023-07-31T13:44:08;18.20;87.20
76936;DHT22;65881;52.438;16.744;2023-07-31T13:46:34;18.40;86.70
76936;DHT22;65881;52.438;16.744;2023-07-31T13:49:00;18.40;86.80
76936;DHT22;65881;52.438;16.744;2023-07-31T13:51:44;18.40;86.10
76936;DHT22;65881;52.438;16.744;2023-07-31T13:54:13;18.50;85.70
76936;DHT22;65881;52.438;16.744;2023-07-31T13:56:43;18.70;85.50
76936;DHT22;65881;52.438;16.744;2023-07-31T13:59:10;18.90;84.00
76936;DHT22;65881;52.438;16.744;2023-07-31T14:01:36;19.00;82.30
76936;DHT22;65881;52.438;16.744;2023-07-31T14:04:01;19.20;84.00
76936;DHT22;65881;52.438;16.744;2023-07-31T14:06:30;19.40;83.80
76936;DHT22;65881;52.438;16.744;2023-07-31T14:08:56;19.50;80.90
76936;DHT22;65881;52.438;16.744;2023-07-31T14:11:22;19.50;79.60
76936;DHT22;65881;52.438;16.744;2023-07-31T14:13:49;19.50;77.10
76936;DHT22;65881;52.438;16.744;2023-07-31T14:16:15;19.50;77.50
76936;DHT22;65881;52.438;16.744;2023-07-31T14:18:44;19.70;77.70
76936;DHT22;65881;52.438;16.744;2023-07-31T14:21:12;19.80;77.50
76936;DHT22;65881;52.438;16.744;2023-07-31T14:23:37;19.90;78.60
76936;DHT22;65881;52.438;16.744;2023-07-31T14:26:03;20.20;76.70
76936;DHT22;65881;52.438;16.744;2023-07-31T14:28:28;20.30;75.80
76936;DHT22;65881;52.438;16.744;2023-07-31T14:30:57;20.60;73.70
76936;DHT22;65881;52.438;16.744;2023-07-31T14:33:22;20.80;72.50
76936;DHT22;65881;52.438;16.744;2023-07-31T14:35:48;20.80;70.90
76936;DHT22;65881;52.438;16.744;2023-07-31T14:38:13;20.70;72.00
76936;DHT22;65881;52.438;16.744;2023-07-31T14:40:39;20.70;72.50
76936;DHT22;65881;52.438;16.744;2023-07-31T14:43:05;20.60;71.50
76936;DHT22;65881;52.438;16.744;2023-07-31T14:45:31;20.70;70.50
76936;DHT22;65881;52.438;16.744;2023-07-31T14:47:56;20.80;71.70
76936;DHT22;65881;52.438;16.744;2023-07-31T14:50:22;21.10;69.10
76936;DHT22;65881;52.438;16.744;2023-07-31T14:52:49;21.10;69.00
76936;DHT22;65881;52.438;16.744;2023-07-31T14:55:14;21.10;68.50
76936;DHT22;65881;52.438;16.744;2023-07-31T14:57:40;21.00;69.40
76936;DHT22;65881;52.438;16.744;2023-07-31T15:00:23;21.00;68.00
76936;DHT22;65881;52.438;16.744;2023-07-31T15:03:02;21.10;68.10
76936;DHT22;65881;52.438;16.744;2023-07-31T15:05:46;20.90;68.00
76936;DHT22;65881;52.438;16.744;2023-07-31T15:08:17;20.70;68.70
76936;DHT22;65881;52.438;16.744;2023-07-31T15:11:02;20.70;67.90
76936;DHT22;65881;52.438;16.744;2023-07-31T15:13:49;20.60;68.30
76936;DHT22;65881;52.438;16.744;2023-07-31T15:16:17;20.50;68.90
76936;DHT22;65881;52.438;16.744;2023-07-31T15:18:46;20.50;68.70
76936;DHT22;65881;52.438;16.744;2023-07-31T15:21:15;20.50;68.60
76936;DHT22;65881;52.438;16.744;2023-07-31T15:23:40;20.50;68.90
76936;DHT22;65881;52.438;16.744;2023-07-31T15:26:06;20.50;66.60
76936;DHT22;65881;52.438;16.744;2023-07-31T15:28:39;20.60;66.00
76936;DHT22;65881;52.438;16.744;2023-07-31T15:34:20;20.70;64.20
76936;DHT22;65881;52.438;16.744;2023-07-31T15:36:46;20.70;64.20
76936;DHT22;65881;52.438;16.744;2023-07-31T15:39:12;20.70;63.20
76936;DHT22;65881;52.438;16.744;2023-07-31T15:41:38;20.70;64.00
76936;DHT22;65881;52.438;16.744;2023-07-31T15:44:04;20.80;64.00
76936;DHT22;65881;52.438;16.744;2023-07-31T15:46:31;20.90;63.10
76936;DHT22;65881;52.438;16.744;2023-07-31T15:48:56;20.90;63.00
76936;DHT22;65881;52.438;16.744;2023-07-31T15:51:23;21.00;62.50
76936;DHT22;65881;52.438;16.744;2023-07-31T15:53:49;20.90;62.50
76936;DHT22;65881;52.438;16.744;2023-07-31T15:56:23;20.80;62.80
76936;DHT22;65881;52.438;16.744;2023-07-31T15:58:49;20.70;63.30
76936;DHT22;65881;52.438;16.744;2023-07-31T16:01:15;20.70;62.90
76936;DHT22;65881;52.438;16.744;2023-07-31T16:03:41;20.60;62.90
76936;DHT22;65881;52.438;16.744;2023-07-31T16:06:07;20.70;64.80
76936;DHT22;65881;52.438;16.744;2023-07-31T16:08:48;20.90;63.50
76936;DHT22;65881;52.438;16.744;2023-07-31T16:11:13;21.00;62.90
76936;DHT22;65881;52.438;16.744;2023-07-31T16:13:50;21.00;62.70
76936;DHT22;65881;52.438;16.744;2023-07-31T16:16:16;21.00;62.20
76936;DHT22;65881;52.438;16.744;2023-07-31T16:18:42;21.00;62.80
76936;DHT22;65881;52.438;16.744;2023-07-31T16:21:07;20.90;63.20
76936;DHT22;65881;52.438;16.744;2023-07-31T16:23:33;20.90;62.90
76936;DHT22;65881;52.438;16.744;2023-07-31T16:25:58;20.90;62.50
76936;DHT22;65881;52.438;16.744;2023-07-31T16:28:36;20.90;62.70
76936;DHT22;65881;52.438;16.744;2023-07-31T16:31:02;20.80;63.60
76936;DHT22;65881;52.438;16.744;2023-07-31T16:34:00;20.80;63.00
76936;DHT22;65881;52.438;16.744;2023-07-31T16:36:28;20.80;63.30
76936;DHT22;65881;52.438;16.744;2023-07-31T16:39:06;20.80;62.70
76936;DHT22;65881;52.438;16.744;2023-07-31T16:42:06;20.80;62.20
76936;DHT22;65881;52.438;16.744;2023-07-31T16:44:32;20.80;62.60
76936;DHT22;65881;52.438;16.744;2023-07-31T16:46:58;20.80;62.20
76936;DHT22;65881;52.438;16.744;2023-07-31T16:49:24;20.80;61.90
76936;DHT22;65881;52.438;16.744;2023-07-31T16:51:51;20.80;61.80
76936;DHT22;65881;52.438;16.744;2023-07-31T16:54:17;20.80;61.60
76936;DHT22;65881;52.438;16.744;2023-07-31T16:56:42;20.70;61.60
76936;DHT22;65881;52.438;16.744;2023-07-31T16:59:08;20.70;62.20
76936;DHT22;65881;52.438;16.744;2023-07-31T17:01:37;20.70;62.20
76936;DHT22;65881;52.438;16.744;2023-07-31T17:04:02;20.80;62.10
76936;DHT22;65881;52.438;16.744;2023-07-31T17:06:40;20.80;62.50
76936;DHT22;65881;52.438;16.744;2023-07-31T17:09:12;20.80;62.50
76936;DHT22;65881;52.438;16.744;2023-07-31T17:11:57;20.80;63.10
76936;DHT22;65881;52.438;16.744;2023-07-31T17:14:38;20.80;62.80
76936;DHT22;65881;52.438;16.744;2023-07-31T17:17:19;20.70;63.20
76936;DHT22;65881;52.438;16.744;2023-07-31T17:19:54;20.70;63.20
76936;DHT22;65881;52.438;16.744;2023-07-31T17:22:23;20.60;62.60
76936;DHT22;65881;52.438;16.744;2023-07-31T17:25:18;20.60;62.80
76936;DHT22;65881;52.438;16.744;2023-07-31T17:28:19;20.60;63.20
76936;DHT22;65881;52.438;16.744;2023-07-31T17:30:48;20.60;63.30
76936;DHT22;65881;52.438;16.744;2023-07-31T17:33:14;20.50;63.60
76936;DHT22;65881;52.438;16.744;2023-07-31T17:35:49;20.50;63.70
76936;DHT22;65881;52.438;16.744;2023-07-31T17:38:15;20.50;63.70
76936;DHT22;65881;52.438;16.744;2023-07-31T17:40:53;20.50;63.80
76936;DHT22;65881;52.438;16.744;2023-07-31T17:43:19;20.50;63.40
76936;DHT22;65881;52.438;16.744;2023-07-31T17:45:44;20.50;63.40
76936;DHT22;65881;52.438;16.744;2023-07-31T17:48:19;20.40;63.80
76936;DHT22;65881;52.438;16.744;2023-07-31T17:51:05;20.40;63.10
76936;DHT22;65881;52.438;16.744;2023-07-31T17:53:31;20.30;63.30
76936;DHT22;65881;52.438;16.744;2023-07-31T17:55:59;20.40;63.00
76936;DHT22;65881;52.438;16.744;2023-07-31T17:58:25;20.30;63.50
76936;DHT22;65881;52.438;16.744;2023-07-31T18:00:51;20.30;63.40
76936;DHT22;65881;52.438;16.744;2023-07-31T18:03:17;20.30;63.10
76936;DHT22;65881;52.438;16.744;2023-07-31T18:05:43;20.30;63.20
76936;DHT22;65881;52.438;16.744;2023-07-31T18:08:08;20.20;63.30
76936;DHT22;65881;52.438;16.744;2023-07-31T18:10:34;20.10;63.40
76936;DHT22;65881;52.438;16.744;2023-07-31T18:13:00;20.00;63.60
76936;DHT22;65881;52.438;16.744;2023-07-31T18:15:28;20.00;64.00
76936;DHT22;65881;52.438;16.744;2023-07-31T18:17:54;20.00;64.50
76936;DHT22;65881;52.438;16.744;2023-07-31T18:20:20;19.90;64.70
76936;DHT22;65881;52.438;16.744;2023-07-31T18:22:45;19.90;64.70